sensor_id;sensor_type;location;lat;lon;timestamp;P1;durP1;ratioP1;P2;durP2;ratioP2
38847;SDS011;24602;44.780;20.408;2022-08-11T00:01:10;9.02;;;3.40;;
38847;SDS011;24602;44.780;20.408;2022-08-11T00:04:14;5.50;;;2.65;;
38847;SDS011;24602;44.780;20.408;2022-08-11T00:06:47;6.60;;;3.15;;
38847;SDS011;24602;44.780;20.408;2022-08-11T00:09:30;5.93;;;2.60;;
38847;SDS011;24602;44.780;20.408;2022-08-11T00:12:15;4.05;;;2.33;;
38847;SDS011;24602;44.780;20.408;2022-08-11T00:14:56;4.25;;;2.58;;
38847;SDS011;24602;44.780;20.408;2022-08-11T00:17:41;5.70;;;2.55;;
38847;SDS011;24602;44.780;20.408;2022-08-11T00:20:14;10.13;;;3.28;;
38847;SDS011;24602;44.780;20.408;2022-08-11T00:22:51;7.05;;;2.70;;
38847;SDS011;24602;44.780;20.408;2022-08-11T00:25:41;5.07;;;2.33;;
38847;SDS011;24602;44.780;20.408;2022-08-11T00:28:33;4.00;;;2.85;;
38847;SDS011;24602;44.780;20.408;2022-08-11T00:31:23;8.38;;;2.58;;
38847;SDS011;24602;44.780;20.408;2022-08-11T00:34:04;4.65;;;2.30;;
38847;SDS011;24602;44.780;20.408;2022-08-11T00:36:46;4.65;;;2.55;;
38847;SDS011;24602;44.780;20.408;2022-08-11T00:39:21;5.82;;;2.75;;
38847;SDS011;24602;44.780;20.408;2022-08-11T00:47:58;2.97;;;2.13;;
38847;SDS011;24602;44.780;20.408;2022-08-11T01:00:41;3.83;;;2.28;;
38847;SDS011;24602;44.780;20.408;2022-08-11T01:23:03;5.40;;;2.63;;
38847;SDS011;24602;44.780;20.408;2022-08-11T01:29:00;5.45;;;2.67;;
38847;SDS011;24602;44.780;20.408;2022-08-11T01:32:12;5.10;;;2.25;;
38847;SDS011;24602;44.780;20.408;2022-08-11T01:41:12;5.95;;;2.70;;
38847;SDS011;24602;44.780;20.408;2022-08-11T01:47:24;3.33;;;2.42;;
38847;SDS011;24602;44.780;20.408;2022-08-11T01:56:31;3.70;;;2.38;;
38847;SDS011;24602;44.780;20.408;2022-08-11T02:02:21;2.97;;;2.03;;
38847;SDS011;24602;44.780;20.408;2022-08-11T02:11:18;7.45;;;3.20;;
38847;SDS011;24602;44.780;20.408;2022-08-11T02:17:36;7.50;;;3.33;;
38847;SDS011;24602;44.780;20.408;2022-08-11T02:24:03;5.65;;;3.28;;
38847;SDS011;24602;44.780;20.408;2022-08-11T02:26:47;6.30;;;3.10;;
38847;SDS011;24602;44.780;20.408;2022-08-11T02:32:18;3.92;;;2.92;;
38847;SDS011;24602;44.780;20.408;2022-08-11T02:38:31;4.50;;;3.22;;
38847;SDS011;24602;44.780;20.408;2022-08-11T03:02:32;5.40;;;2.80;;
38847;SDS011;24602;44.780;20.408;2022-08-11T03:05:40;5.07;;;2.60;;
38847;SDS011;24602;44.780;20.408;2022-08-11T03:12:07;3.45;;;2.22;;
38847;SDS011;24602;44.780;20.408;2022-08-11T03:18:53;7.88;;;2.83;;
38847;SDS011;24602;44.780;20.408;2022-08-11T03:22:22;6.10;;;2.45;;
38847;SDS011;24602;44.780;20.408;2022-08-11T03:27:35;4.65;;;2.70;;
38847;SDS011;24602;44.780;20.408;2022-08-11T03:30:24;4.13;;;2.42;;
38847;SDS011;24602;44.780;20.408;2022-08-11T03:39:50;5.50;;;2.75;;
38847;SDS011;24602;44.780;20.408;2022-08-11T03:42:46;6.35;;;3.00;;
38847;SDS011;24602;44.780;20.408;2022-08-11T03:45:39;5.35;;;3.10;;
38847;SDS011;24602;44.780;20.408;2022-08-11T03:51:54;6.88;;;2.90;;
38847;SDS011;24602;44.780;20.408;2022-08-11T04:12:49;5.68;;;3.38;;
38847;SDS011;24602;44.780;20.408;2022-08-11T04:28:36;6.65;;;3.47;;
38847;SDS011;24602;44.780;20.408;2022-08-11T04:53:51;7.53;;;3.47;;
38847;SDS011;24602;44.780;20.408;2022-08-11T04:56:58;8.38;;;4.05;;
38847;SDS011;24602;44.780;20.408;2022-08-11T05:00:00;7.60;;;4.15;;
38847;SDS011;24602;44.780;20.408;2022-08-11T05:15:05;6.05;;;3.33;;
38847;SDS011;24602;44.780;20.408;2022-08-11T05:18:15;8.05;;;3.72;;
38847;SDS011;24602;44.780;20.408;2022-08-11T05:21:14;9.18;;;3.78;;
38847;SDS011;24602;44.780;20.408;2022-08-11T05:24:20;10.30;;;3.92;;
38847;SDS011;24602;44.780;20.408;2022-08-11T05:27:14;13.30;;;3.50;;
38847;SDS011;24602;44.780;20.408;2022-08-11T05:30:10;11.38;;;4.20;;
38847;SDS011;24602;44.780;20.408;2022-08-11T05:33:09;10.80;;;4.57;;
38847;SDS011;24602;44.780;20.408;2022-08-11T05:36:32;9.48;;;4.25;;
38847;SDS011;24602;44.780;20.408;2022-08-11T05:40:14;7.55;;;4.30;;
38847;SDS011;24602;44.780;20.408;2022-08-11T05:43:07;8.73;;;3.80;;
38847;SDS011;24602;44.780;20.408;2022-08-11T05:46:03;10.13;;;4.00;;
38847;SDS011;24602;44.780;20.408;2022-08-11T05:48:55;6.22;;;3.63;;
38847;SDS011;24602;44.780;20.408;2022-08-11T05:51:43;8.07;;;3.55;;
38847;SDS011;24602;44.780;20.408;2022-08-11T05:54:43;9.70;;;4.03;;
38847;SDS011;24602;44.780;20.408;2022-08-11T05:57:35;9.52;;;3.70;;
38847;SDS011;24602;44.780;20.408;2022-08-11T06:00:19;9.60;;;3.67;;
38847;SDS011;24602;44.780;20.408;2022-08-11T06:02:59;8.48;;;3.60;;
38847;SDS011;24602;44.780;20.408;2022-08-11T06:05:59;6.07;;;3.70;;
38847;SDS011;24602;44.780;20.408;2022-08-11T06:08:36;7.90;;;3.33;;
38847;SDS011;24602;44.780;20.408;2022-08-11T06:11:04;4.93;;;3.05;;
38847;SDS011;24602;44.780;20.408;2022-08-11T06:13:35;10.05;;;3.38;;
38847;SDS011;24602;44.780;20.408;2022-08-11T06:16:12;10.40;;;2.80;;
38847;SDS011;24602;44.780;20.408;2022-08-11T06:18:46;6.43;;;3.22;;
38847;SDS011;24602;44.780;20.408;2022-08-11T06:21:33;5.03;;;2.20;;
38847;SDS011;24602;44.780;20.408;2022-08-11T06:24:13;8.07;;;1.98;;
38847;SDS011;24602;44.780;20.408;2022-08-11T06:26:47;4.13;;;1.90;;
38847;SDS011;24602;44.780;20.408;2022-08-11T06:29:45;8.52;;;2.35;;
38847;SDS011;24602;44.780;20.408;2022-08-11T06:32:23;5.03;;;1.70;;
38847;SDS011;24602;44.780;20.408;2022-08-11T06:40:50;4.00;;;1.88;;
38847;SDS011;24602;44.780;20.408;2022-08-11T06:46:48;9.13;;;1.90;;
38847;SDS011;24602;44.780;20.408;2022-08-11T06:49:31;5.60;;;1.70;;
38847;SDS011;24602;44.780;20.408;2022-08-11T06:55:08;4.22;;;1.92;;
38847;SDS011;24602;44.780;20.408;2022-08-11T06:58:32;8.90;;;2.10;;
38847;SDS011;24602;44.780;20.408;2022-08-11T07:04:34;5.78;;;2.00;;
38847;SDS011;24602;44.780;20.408;2022-08-11T07:07:33;4.32;;;2.30;;
38847;SDS011;24602;44.780;20.408;2022-08-11T07:14:17;5.47;;;1.92;;
38847;SDS011;24602;44.780;20.408;2022-08-11T07:17:30;4.82;;;2.30;;
38847;SDS011;24602;44.780;20.408;2022-08-11T07:20:40;3.75;;;2.10;;
38847;SDS011;24602;44.780;20.408;2022-08-11T07:23:53;10.15;;;2.10;;
38847;SDS011;24602;44.780;20.408;2022-08-11T07:27:10;6.15;;;1.88;;
38847;SDS011;24602;44.780;20.408;2022-08-11T07:30:08;3.47;;;2.08;;
38847;SDS011;24602;44.780;20.408;2022-08-11T07:32:45;3.30;;;1.80;;
38847;SDS011;24602;44.780;20.408;2022-08-11T07:35:23;5.72;;;1.88;;
38847;SDS011;24602;44.780;20.408;2022-08-11T07:40:35;5.75;;;2.22;;
38847;SDS011;24602;44.780;20.408;2022-08-11T07:43:07;7.53;;;2.10;;
38847;SDS011;24602;44.780;20.408;2022-08-11T07:45:43;3.90;;;1.80;;
38847;SDS011;24602;44.780;20.408;2022-08-11T07:48:32;6.88;;;1.92;;
38847;SDS011;24602;44.780;20.408;2022-08-11T07:51:22;4.75;;;1.88;;
38847;SDS011;24602;44.780;20.408;2022-08-11T07:54:12;10.48;;;1.75;;
38847;SDS011;24602;44.780;20.408;2022-08-11T07:56:45;7.30;;;1.83;;
38847;SDS011;24602;44.780;20.408;2022-08-11T07:59:23;3.65;;;1.83;;
38847;SDS011;24602;44.780;20.408;2022-08-11T08:02:51;9.23;;;2.20;;
38847;SDS011;24602;44.780;20.408;2022-08-11T08:05:40;8.52;;;2.20;;
38847;SDS011;24602;44.780;20.408;2022-08-11T08:08:29;5.13;;;1.92;;
38847;SDS011;24602;44.780;20.408;2022-08-11T08:11:40;4.47;;;1.60;;
38847;SDS011;24602;44.780;20.408;2022-08-11T08:14:29;6.80;;;1.70;;
38847;SDS011;24602;44.780;20.408;2022-08-11T08:17:17;5.45;;;1.90;;
38847;SDS011;24602;44.780;20.408;2022-08-11T08:20:09;7.57;;;1.40;;
38847;SDS011;24602;44.780;20.408;2022-08-11T08:22:52;5.85;;;1.40;;
38847;SDS011;24602;44.780;20.408;2022-08-11T08:25:25;6.30;;;1.50;;
38847;SDS011;24602;44.780;20.408;2022-08-11T08:28:06;3.83;;;1.50;;
38847;SDS011;24602;44.780;20.408;2022-08-11T08:30:36;3.95;;;1.13;;
38847;SDS011;24602;44.780;20.408;2022-08-11T08:35:57;4.05;;;1.67;;
38847;SDS011;24602;44.780;20.408;2022-08-11T08:38:47;8.88;;;2.00;;
38847;SDS011;24602;44.780;20.408;2022-08-11T08:41:28;6.93;;;1.70;;
38847;SDS011;24602;44.780;20.408;2022-08-11T08:44:08;5.30;;;1.83;;
38847;SDS011;24602;44.780;20.408;2022-08-11T08:47:06;9.77;;;1.60;;
38847;SDS011;24602;44.780;20.408;2022-08-11T08:50:04;3.80;;;1.38;;
38847;SDS011;24602;44.780;20.408;2022-08-11T08:52:46;2.72;;;1.50;;
38847;SDS011;24602;44.780;20.408;2022-08-11T08:55:30;4.05;;;1.40;;
38847;SDS011;24602;44.780;20.408;2022-08-11T08:58:00;5.60;;;1.60;;
38847;SDS011;24602;44.780;20.408;2022-08-11T09:00:37;3.00;;;1.35;;
38847;SDS011;24602;44.780;20.408;2022-08-11T09:03:10;5.03;;;1.35;;
38847;SDS011;24602;44.780;20.408;2022-08-11T09:06:01;3.00;;;1.40;;
38847;SDS011;24602;44.780;20.408;2022-08-11T09:08:31;1.58;;;1.30;;
38847;SDS011;24602;44.780;20.408;2022-08-11T09:11:08;6.38;;;1.73;;
38847;SDS011;24602;44.780;20.408;2022-08-11T09:14:00;7.65;;;1.60;;
38847;SDS011;24602;44.780;20.408;2022-08-11T09:16:36;4.90;;;1.25;;
38847;SDS011;24602;44.780;20.408;2022-08-11T09:19:06;1.88;;;1.40;;
38847;SDS011;24602;44.780;20.408;2022-08-11T09:21:40;6.90;;;1.42;;
38847;SDS011;24602;44.780;20.408;2022-08-11T09:24:17;11.27;;;2.10;;
38847;SDS011;24602;44.780;20.408;2022-08-11T09:27:06;4.07;;;1.63;;
38847;SDS011;24602;44.780;20.408;2022-08-11T09:29:43;3.30;;;1.52;;
38847;SDS011;24602;44.780;20.408;2022-08-11T09:32:12;1.83;;;1.30;;
38847;SDS011;24602;44.780;20.408;2022-08-11T09:34:52;4.57;;;1.40;;
38847;SDS011;24602;44.780;20.408;2022-08-11T09:37:34;4.30;;;1.42;;
38847;SDS011;24602;44.780;20.408;2022-08-11T09:40:33;4.95;;;1.45;;
38847;SDS011;24602;44.780;20.408;2022-08-11T09:43:04;3.22;;;1.48;;
38847;SDS011;24602;44.780;20.408;2022-08-11T09:45:56;3.28;;;1.48;;
38847;SDS011;24602;44.780;20.408;2022-08-11T09:48:31;5.57;;;1.58;;
38847;SDS011;24602;44.780;20.408;2022-08-11T09:51:07;2.05;;;1.17;;
38847;SDS011;24602;44.780;20.408;2022-08-11T09:53:42;6.53;;;1.60;;
38847;SDS011;24602;44.780;20.408;2022-08-11T09:56:30;4.43;;;1.63;;
38847;SDS011;24602;44.780;20.408;2022-08-11T09:59:18;5.32;;;1.63;;
38847;SDS011;24602;44.780;20.408;2022-08-11T10:01:49;4.95;;;1.67;;
38847;SDS011;24602;44.780;20.408;2022-08-11T10:04:44;4.88;;;1.50;;
38847;SDS011;24602;44.780;20.408;2022-08-11T10:07:26;4.45;;;1.60;;
38847;SDS011;24602;44.780;20.408;2022-08-11T10:09:58;3.63;;;1.60;;
38847;SDS011;24602;44.780;20.408;2022-08-11T10:12:40;6.43;;;1.50;;
38847;SDS011;24602;44.780;20.408;2022-08-11T10:15:53;2.73;;;1.27;;
38847;SDS011;24602;44.780;20.408;2022-08-11T10:18:43;4.22;;;1.38;;
38847;SDS011;24602;44.780;20.408;2022-08-11T10:24:33;2.47;;;1.50;;
38847;SDS011;24602;44.780;20.408;2022-08-11T10:27:19;2.45;;;1.48;;
38847;SDS011;24602;44.780;20.408;2022-08-11T10:30:12;5.55;;;1.75;;
38847;SDS011;24602;44.780;20.408;2022-08-11T10:33:02;5.03;;;1.67;;
38847;SDS011;24602;44.780;20.408;2022-08-11T10:36:06;4.78;;;1.50;;
38847;SDS011;24602;44.780;20.408;2022-08-11T10:38:44;1.88;;;1.10;;
38847;SDS011;24602;44.780;20.408;2022-08-11T10:41:18;4.50;;;1.52;;
38847;SDS011;24602;44.780;20.408;2022-08-11T10:44:28;4.10;;;1.60;;
38847;SDS011;24602;44.780;20.408;2022-08-11T10:47:02;3.85;;;1.50;;
38847;SDS011;24602;44.780;20.408;2022-08-11T10:49:55;3.65;;;1.55;;
38847;SDS011;24602;44.780;20.408;2022-08-11T10:52:46;2.28;;;1.40;;
38847;SDS011;24602;44.780;20.408;2022-08-11T10:55:35;2.88;;;1.50;;
38847;SDS011;24602;44.780;20.408;2022-08-11T10:58:26;5.22;;;1.65;;
38847;SDS011;24602;44.780;20.408;2022-08-11T11:01:23;2.45;;;1.48;;
38847;SDS011;24602;44.780;20.408;2022-08-11T11:04:03;5.15;;;1.40;;
38847;SDS011;24602;44.780;20.408;2022-08-11T11:07:17;1.98;;;1.25;;
38847;SDS011;24602;44.780;20.408;2022-08-11T11:09:53;6.90;;;1.58;;
38847;SDS011;24602;44.780;20.408;2022-08-11T11:15:26;1.88;;;1.40;;
38847;SDS011;24602;44.780;20.408;2022-08-11T11:21:05;5.47;;;2.00;;
38847;SDS011;24602;44.780;20.408;2022-08-11T11:33:28;5.25;;;2.33;;
38847;SDS011;24602;44.780;20.408;2022-08-11T11:35:56;3.85;;;2.45;;
38847;SDS011;24602;44.780;20.408;2022-08-11T11:38:45;4.78;;;2.13;;
38847;SDS011;24602;44.780;20.408;2022-08-11T11:41:16;3.05;;;2.28;;
38847;SDS011;24602;44.780;20.408;2022-08-11T11:43:56;4.68;;;2.53;;
38847;SDS011;24602;44.780;20.408;2022-08-11T11:49:07;5.15;;;2.50;;
38847;SDS011;24602;44.780;20.408;2022-08-11T11:51:46;2.80;;;2.20;;
38847;SDS011;24602;44.780;20.408;2022-08-11T11:54:20;3.53;;;1.70;;
38847;SDS011;24602;44.780;20.408;2022-08-11T11:57:04;7.38;;;2.13;;
38847;SDS011;24602;44.780;20.408;2022-08-11T11:59:55;4.97;;;2.53;;
38847;SDS011;24602;44.780;20.408;2022-08-11T12:02:45;4.13;;;2.55;;
38847;SDS011;24602;44.780;20.408;2022-08-11T12:05:17;4.55;;;2.00;;
38847;SDS011;24602;44.780;20.408;2022-08-11T12:07:47;2.60;;;2.00;;
38847;SDS011;24602;44.780;20.408;2022-08-11T12:10:48;2.05;;;1.63;;
38847;SDS011;24602;44.780;20.408;2022-08-11T12:13:45;5.25;;;2.58;;
38847;SDS011;24602;44.780;20.408;2022-08-11T12:16:24;6.40;;;2.67;;
38847;SDS011;24602;44.780;20.408;2022-08-11T12:19:05;3.75;;;1.92;;
38847;SDS011;24602;44.780;20.408;2022-08-11T12:21:41;3.05;;;1.90;;
38847;SDS011;24602;44.780;20.408;2022-08-11T12:24:30;4.05;;;1.90;;
38847;SDS011;24602;44.780;20.408;2022-08-11T12:27:22;3.75;;;1.45;;
38847;SDS011;24602;44.780;20.408;2022-08-11T12:29:56;3.78;;;1.30;;
38847;SDS011;24602;44.780;20.408;2022-08-11T12:32:34;5.50;;;1.35;;
38847;SDS011;24602;44.780;20.408;2022-08-11T12:35:13;6.13;;;2.03;;
38847;SDS011;24602;44.780;20.408;2022-08-11T12:37:46;5.00;;;1.60;;
38847;SDS011;24602;44.780;20.408;2022-08-11T12:40:29;3.28;;;1.58;;
38847;SDS011;24602;44.780;20.408;2022-08-11T12:43:41;9.25;;;1.58;;
38847;SDS011;24602;44.780;20.408;2022-08-11T12:46:37;5.28;;;1.05;;
38847;SDS011;24602;44.780;20.408;2022-08-11T12:49:12;4.03;;;1.42;;
38847;SDS011;24602;44.780;20.408;2022-08-11T12:52:15;3.25;;;1.20;;
38847;SDS011;24602;44.780;20.408;2022-08-11T12:55:11;3.65;;;1.23;;
38847;SDS011;24602;44.780;20.408;2022-08-11T12:58:33;7.10;;;1.15;;
38847;SDS011;24602;44.780;20.408;2022-08-11T13:01:15;4.55;;;1.50;;
38847;SDS011;24602;44.780;20.408;2022-08-11T13:04:03;2.20;;;1.00;;
38847;SDS011;24602;44.780;20.408;2022-08-11T13:07:01;3.97;;;1.08;;
38847;SDS011;24602;44.780;20.408;2022-08-11T13:09:35;3.67;;;1.00;;
38847;SDS011;24602;44.780;20.408;2022-08-11T13:12:09;3.25;;;0.90;;
38847;SDS011;24602;44.780;20.408;2022-08-11T13:15:03;2.92;;;1.05;;
38847;SDS011;24602;44.780;20.408;2022-08-11T13:17:33;4.32;;;1.00;;
38847;SDS011;24602;44.780;20.408;2022-08-11T13:20:11;3.67;;;0.70;;
38847;SDS011;24602;44.780;20.408;2022-08-11T13:22:41;3.72;;;1.08;;
38847;SDS011;24602;44.780;20.408;2022-08-11T13:25:13;3.95;;;0.93;;
38847;SDS011;24602;44.780;20.408;2022-08-11T13:27:45;8.13;;;1.15;;
38847;SDS011;24602;44.780;20.408;2022-08-11T13:30:21;1.55;;;0.90;;
38847;SDS011;24602;44.780;20.408;2022-08-11T13:33:17;2.20;;;0.93;;
38847;SDS011;24602;44.780;20.408;2022-08-11T13:35:49;1.98;;;0.90;;
38847;SDS011;24602;44.780;20.408;2022-08-11T13:38:23;2.70;;;1.05;;
38847;SDS011;24602;44.780;20.408;2022-08-11T13:41:05;7.07;;;1.08;;
38847;SDS011;24602;44.780;20.408;2022-08-11T13:43:57;2.60;;;0.82;;
38847;SDS011;24602;44.780;20.408;2022-08-11T13:46:28;1.80;;;0.80;;
38847;SDS011;24602;44.780;20.408;2022-08-11T13:48:58;2.75;;;0.90;;
38847;SDS011;24602;44.780;20.408;2022-08-11T13:51:30;1.33;;;0.75;;
38847;SDS011;24602;44.780;20.408;2022-08-11T13:54:04;1.50;;;0.82;;
38847;SDS011;24602;44.780;20.408;2022-08-11T13:56:37;6.15;;;1.10;;
38847;SDS011;24602;44.780;20.408;2022-08-11T13:59:13;2.25;;;0.90;;
38847;SDS011;24602;44.780;20.408;2022-08-11T14:02:01;5.22;;;0.93;;
38847;SDS011;24602;44.780;20.408;2022-08-11T14:05:00;5.57;;;0.93;;
38847;SDS011;24602;44.780;20.408;2022-08-11T14:07:45;1.58;;;0.90;;
38847;SDS011;24602;44.780;20.408;2022-08-11T14:10:20;3.20;;;0.90;;
38847;SDS011;24602;44.780;20.408;2022-08-11T14:13:02;4.93;;;0.80;;
38847;SDS011;24602;44.780;20.408;2022-08-11T14:16:19;2.03;;;0.90;;
38847;SDS011;24602;44.780;20.408;2022-08-11T14:18:53;2.65;;;0.70;;
38847;SDS011;24602;44.780;20.408;2022-08-11T14:21:29;1.30;;;0.73;;
38847;SDS011;24602;44.780;20.408;2022-08-11T14:24:21;3.08;;;0.77;;
38847;SDS011;24602;44.780;20.408;2022-08-11T14:26:52;2.75;;;0.70;;
38847;SDS011;24602;44.780;20.408;2022-08-11T14:29:26;3.97;;;0.85;;
38847;SDS011;24602;44.780;20.408;2022-08-11T14:31:58;2.00;;;0.68;;
38847;SDS011;24602;44.780;20.408;2022-08-11T14:34:30;2.60;;;1.00;;
38847;SDS011;24602;44.780;20.408;2022-08-11T14:37:13;6.40;;;1.27;;
38847;SDS011;24602;44.780;20.408;2022-08-11T14:39:52;2.78;;;0.88;;
38847;SDS011;24602;44.780;20.408;2022-08-11T14:42:31;3.55;;;1.02;;
38847;SDS011;24602;44.780;20.408;2022-08-11T14:45:25;4.25;;;0.70;;
38847;SDS011;24602;44.780;20.408;2022-08-11T14:48:26;2.03;;;0.75;;
38847;SDS011;24602;44.780;20.408;2022-08-11T14:50:59;2.03;;;0.63;;
38847;SDS011;24602;44.780;20.408;2022-08-11T14:53:30;2.50;;;1.20;;
38847;SDS011;24602;44.780;20.408;2022-08-11T14:56:02;3.00;;;0.80;;
38847;SDS011;24602;44.780;20.408;2022-08-11T14:58:58;3.22;;;0.75;;
38847;SDS011;24602;44.780;20.408;2022-08-11T15:01:26;2.05;;;0.90;;
38847;SDS011;24602;44.780;20.408;2022-08-11T15:04:13;5.95;;;1.20;;
38847;SDS011;24602;44.780;20.408;2022-08-11T15:07:03;1.58;;;0.60;;
38847;SDS011;24602;44.780;20.408;2022-08-11T15:09:43;1.52;;;0.65;;
38847;SDS011;24602;44.780;20.408;2022-08-11T15:12:38;2.00;;;0.88;;
38847;SDS011;24602;44.780;20.408;2022-08-11T15:15:10;4.15;;;0.93;;
38847;SDS011;24602;44.780;20.408;2022-08-11T15:17:59;2.80;;;0.85;;
38847;SDS011;24602;44.780;20.408;2022-08-11T15:20:33;1.67;;;0.95;;
38847;SDS011;24602;44.780;20.408;2022-08-11T15:23:23;1.38;;;0.70;;
38847;SDS011;24602;44.780;20.408;2022-08-11T15:26:18;0.73;;;0.60;;
38847;SDS011;24602;44.780;20.408;2022-08-11T15:29:27;2.88;;;0.80;;
38847;SDS011;24602;44.780;20.408;2022-08-11T15:32:19;5.50;;;0.90;;
38847;SDS011;24602;44.780;20.408;2022-08-11T15:35:11;3.10;;;1.08;;
38847;SDS011;24602;44.780;20.408;2022-08-11T15:38:06;2.67;;;0.82;;
38847;SDS011;24602;44.780;20.408;2022-08-11T15:40:43;2.95;;;0.90;;
38847;SDS011;24602;44.780;20.408;2022-08-11T15:43:45;3.20;;;0.63;;
38847;SDS011;24602;44.780;20.408;2022-08-11T15:46:42;3.72;;;0.80;;
38847;SDS011;24602;44.780;20.408;2022-08-11T15:49:36;2.10;;;0.85;;
38847;SDS011;24602;44.780;20.408;2022-08-11T15:52:32;4.32;;;0.80;;
38847;SDS011;24602;44.780;20.408;2022-08-11T15:55:18;4.18;;;1.23;;
38847;SDS011;24602;44.780;20.408;2022-08-11T15:57:50;1.73;;;0.90;;
38847;SDS011;24602;44.780;20.408;2022-08-11T16:00:42;3.88;;;0.90;;
38847;SDS011;24602;44.780;20.408;2022-08-11T16:03:41;3.67;;;1.13;;
38847;SDS011;24602;44.780;20.408;2022-08-11T16:06:50;4.45;;;0.90;;
38847;SDS011;24602;44.780;20.408;2022-08-11T16:09:50;7.00;;;1.35;;
38847;SDS011;24602;44.780;20.408;2022-08-11T16:13:01;2.60;;;1.05;;
38847;SDS011;24602;44.780;20.408;2022-08-11T16:15:39;8.90;;;1.13;;
38847;SDS011;24602;44.780;20.408;2022-08-11T16:18:35;6.80;;;1.30;;
38847;SDS011;24602;44.780;20.408;2022-08-11T16:21:18;2.15;;;0.90;;
38847;SDS011;24602;44.780;20.408;2022-08-11T16:24:04;3.60;;;0.88;;
38847;SDS011;24602;44.780;20.408;2022-08-11T16:26:59;1.63;;;1.45;;
38847;SDS011;24602;44.780;20.408;2022-08-11T16:29:44;4.90;;;1.77;;
38847;SDS011;24602;44.780;20.408;2022-08-11T16:32:21;3.63;;;1.73;;
38847;SDS011;24602;44.780;20.408;2022-08-11T16:34:58;4.30;;;2.00;;
38847;SDS011;24602;44.780;20.408;2022-08-11T16:37:48;2.40;;;1.52;;
38847;SDS011;24602;44.780;20.408;2022-08-11T16:40:40;5.03;;;1.92;;
38847;SDS011;24602;44.780;20.408;2022-08-11T16:43:14;6.85;;;1.80;;
38847;SDS011;24602;44.780;20.408;2022-08-11T16:46:05;3.08;;;1.60;;
38847;SDS011;24602;44.780;20.408;2022-08-11T16:48:56;1.65;;;1.15;;
38847;SDS011;24602;44.780;20.408;2022-08-11T16:51:29;4.03;;;0.93;;
38847;SDS011;24602;44.780;20.408;2022-08-11T16:53:59;3.13;;;1.52;;
38847;SDS011;24602;44.780;20.408;2022-08-11T16:56:50;3.97;;;1.55;;
38847;SDS011;24602;44.780;20.408;2022-08-11T17:00:00;5.45;;;1.70;;
38847;SDS011;24602;44.780;20.408;2022-08-11T17:02:36;3.08;;;1.70;;
38847;SDS011;24602;44.780;20.408;2022-08-11T17:05:50;1.83;;;1.10;;
38847;SDS011;24602;44.780;20.408;2022-08-11T17:08:52;2.60;;;1.27;;
38847;SDS011;24602;44.780;20.408;2022-08-11T17:11:44;2.50;;;0.90;;
38847;SDS011;24602;44.780;20.408;2022-08-11T17:14:50;2.33;;;1.15;;
38847;SDS011;24602;44.780;20.408;2022-08-11T17:17:36;4.55;;;1.50;;
38847;SDS011;24602;44.780;20.408;2022-08-11T17:20:35;2.95;;;0.77;;
38847;SDS011;24602;44.780;20.408;2022-08-11T17:23:10;3.80;;;1.10;;
38847;SDS011;24602;44.780;20.408;2022-08-11T17:26:13;4.05;;;1.52;;
38847;SDS011;24602;44.780;20.408;2022-08-11T17:28:56;3.63;;;1.58;;
38847;SDS011;24602;44.780;20.408;2022-08-11T17:31:31;5.22;;;1.70;;
38847;SDS011;24602;44.780;20.408;2022-08-11T17:34:36;4.13;;;1.73;;
38847;SDS011;24602;44.780;20.408;2022-08-11T17:37:42;4.07;;;1.40;;
38847;SDS011;24602;44.780;20.408;2022-08-11T17:40:14;4.07;;;0.93;;
38847;SDS011;24602;44.780;20.408;2022-08-11T17:42:54;3.40;;;1.20;;
38847;SDS011;24602;44.780;20.408;2022-08-11T17:45:44;2.55;;;1.10;;
38847;SDS011;24602;44.780;20.408;2022-08-11T17:48:37;8.02;;;1.50;;
38847;SDS011;24602;44.780;20.408;2022-08-11T17:51:20;4.22;;;1.20;;
38847;SDS011;24602;44.780;20.408;2022-08-11T17:54:09;2.90;;;0.90;;
38847;SDS011;24602;44.780;20.408;2022-08-11T17:57:07;4.90;;;1.40;;
38847;SDS011;24602;44.780;20.408;2022-08-11T17:59:57;4.47;;;1.52;;
38847;SDS011;24602;44.780;20.408;2022-08-11T18:05:30;4.88;;;1.33;;
38847;SDS011;24602;44.780;20.408;2022-08-11T18:08:05;6.00;;;1.60;;
38847;SDS011;24602;44.780;20.408;2022-08-11T18:10:59;3.83;;;1.38;;
38847;SDS011;24602;44.780;20.408;2022-08-11T18:14:10;4.80;;;1.60;;
38847;SDS011;24602;44.780;20.408;2022-08-11T18:17:00;5.25;;;0.90;;
38847;SDS011;24602;44.780;20.408;2022-08-11T18:19:49;4.70;;;1.35;;
38847;SDS011;24602;44.780;20.408;2022-08-11T18:22:40;5.32;;;1.92;;
38847;SDS011;24602;44.780;20.408;2022-08-11T18:25:31;3.53;;;1.27;;
38847;SDS011;24602;44.780;20.408;2022-08-11T18:28:26;6.88;;;1.98;;
38847;SDS011;24602;44.780;20.408;2022-08-11T18:31:20;11.15;;;5.47;;
38847;SDS011;24602;44.780;20.408;2022-08-11T18:34:12;11.20;;;5.88;;
38847;SDS011;24602;44.780;20.408;2022-08-11T18:37:05;7.25;;;2.50;;
38847;SDS011;24602;44.780;20.408;2022-08-11T18:40:02;4.68;;;1.98;;
38847;SDS011;24602;44.780;20.408;2022-08-11T18:42:56;7.05;;;2.92;;
38847;SDS011;24602;44.780;20.408;2022-08-11T18:45:56;4.93;;;2.58;;
38847;SDS011;24602;44.780;20.408;2022-08-11T18:49:01;6.25;;;2.20;;
38847;SDS011;24602;44.780;20.408;2022-08-11T18:52:13;4.15;;;2.70;;
38847;SDS011;24602;44.780;20.408;2022-08-11T18:55:06;8.43;;;3.13;;
38847;SDS011;24602;44.780;20.408;2022-08-11T18:58:01;6.20;;;2.60;;
38847;SDS011;24602;44.780;20.408;2022-08-11T19:00:57;8.70;;;2.45;;
38847;SDS011;24602;44.780;20.408;2022-08-11T19:03:55;6.05;;;2.42;;
38847;SDS011;24602;44.780;20.408;2022-08-11T19:06:47;4.75;;;2.45;;
38847;SDS011;24602;44.780;20.408;2022-08-11T19:09:57;5.78;;;2.33;;
38847;SDS011;24602;44.780;20.408;2022-08-11T19:12:46;6.50;;;2.47;;
38847;SDS011;24602;44.780;20.408;2022-08-11T19:15:38;6.03;;;3.97;;
38847;SDS011;24602;44.780;20.408;2022-08-11T19:18:33;5.55;;;2.47;;
38847;SDS011;24602;44.780;20.408;2022-08-11T19:24:17;4.90;;;2.85;;
38847;SDS011;24602;44.780;20.408;2022-08-11T19:27:06;11.90;;;5.53;;
38847;SDS011;24602;44.780;20.408;2022-08-11T19:29:57;10.77;;;6.63;;
38847;SDS011;24602;44.780;20.408;2022-08-11T19:32:49;14.60;;;7.78;;
38847;SDS011;24602;44.780;20.408;2022-08-11T19:35:49;13.18;;;7.38;;
38847;SDS011;24602;44.780;20.408;2022-08-11T19:38:38;10.32;;;6.70;;
38847;SDS011;24602;44.780;20.408;2022-08-11T19:41:27;13.15;;;6.75;;
38847;SDS011;24602;44.780;20.408;2022-08-11T19:44:23;7.60;;;5.20;;
38847;SDS011;24602;44.780;20.408;2022-08-11T19:47:16;11.55;;;3.95;;
38847;SDS011;24602;44.780;20.408;2022-08-11T19:50:10;8.50;;;3.45;;
38847;SDS011;24602;44.780;20.408;2022-08-11T19:53:06;8.25;;;3.97;;
38847;SDS011;24602;44.780;20.408;2022-08-11T19:55:53;7.18;;;4.20;;
38847;SDS011;24602;44.780;20.408;2022-08-11T19:58:44;11.38;;;5.05;;
38847;SDS011;24602;44.780;20.408;2022-08-11T20:01:40;8.77;;;4.25;;
38847;SDS011;24602;44.780;20.408;2022-08-11T20:04:41;7.18;;;4.72;;
38847;SDS011;24602;44.780;20.408;2022-08-11T20:07:31;7.95;;;4.45;;
38847;SDS011;24602;44.780;20.408;2022-08-11T20:10:21;10.38;;;5.18;;
38847;SDS011;24602;44.780;20.408;2022-08-11T20:13:14;9.30;;;5.35;;
38847;SDS011;24602;44.780;20.408;2022-08-11T20:16:08;6.33;;;4.87;;
38847;SDS011;24602;44.780;20.408;2022-08-11T20:19:00;10.32;;;5.75;;
38847;SDS011;24602;44.780;20.408;2022-08-11T20:22:10;9.60;;;5.65;;
38847;SDS011;24602;44.780;20.408;2022-08-11T20:25:07;12.40;;;6.05;;
38847;SDS011;24602;44.780;20.408;2022-08-11T20:28:04;19.05;;;6.03;;
38847;SDS011;24602;44.780;20.408;2022-08-11T20:31:03;12.88;;;5.38;;